sensor_id;sensor_type;location;lat;lon;timestamp;pressure;altitude;pressure_sealevel;temperature;humidity
57234;BME280;43090;52.604;13.318;2022-12-13T00:01:14;100758.44;;;-1.87;87.77
57234;BME280;43090;52.604;13.318;2022-12-13T00:03:41;100754.34;;;-2.02;88.21
57234;BME280;43090;52.604;13.318;2022-12-13T00:06:08;100743.31;;;-2.19;88.52
57234;BME280;43090;52.604;13.318;2022-12-13T00:08:35;100737.34;;;-2.29;88.40
57234;BME280;43090;52.604;13.318;2022-12-13T00:11:02;100738.06;;;-2.19;89.16
57234;BME280;43090;52.604;13.318;2022-12-13T00:13:29;100733.59;;;-2.14;89.22
57234;BME280;43090;52.604;13.318;2022-12-13T00:15:59;100732.81;;;-2.19;90.15
57234;BME280;43090;52.604;13.318;2022-12-13T00:18:25;100730.44;;;-2.31;90.33
57234;BME280;43090;52.604;13.318;2022-12-13T00:20:52;100736.84;;;-1.99;90.15
57234;BME280;43090;52.604;13.318;2022-12-13T00:23:19;100733.53;;;-2.11;90.20
57234;BME280;43090;52.604;13.318;2022-12-13T00:25:46;100735.50;;;-2.22;91.11
57234;BME280;43090;52.604;13.318;2022-12-13T00:28:12;100729.47;;;-2.27;91.32
57234;BME280;43090;52.604;13.318;2022-12-13T00:30:39;100729.88;;;-2.02;91.54
57234;BME280;43090;52.604;13.318;2022-12-13T00:33:05;100725.84;;;-2.20;90.26
57234;BME280;43090;52.604;13.318;2022-12-13T00:35:32;100725.00;;;-2.21;90.58
57234;BME280;43090;52.604;13.318;2022-12-13T00:37:59;100711.88;;;-2.21;90.82
57234;BME280;43090;52.604;13.318;2022-12-13T00:40:27;100714.56;;;-2.25;91.19
57234;BME280;43090;52.604;13.318;2022-12-13T00:42:53;100705.84;;;-2.26;90.92
57234;BME280;43090;52.604;13.318;2022-12-13T00:45:20;100707.91;;;-1.96;90.25
57234;BME280;43090;52.604;13.318;2022-12-13T00:47:46;100703.00;;;-2.15;89.41
57234;BME280;43090;52.604;13.318;2022-12-13T00:50:13;100699.69;;;-2.23;90.21
57234;BME280;43090;52.604;13.318;2022-12-13T00:52:39;100704.09;;;-2.27;90.25
57234;BME280;43090;52.604;13.318;2022-12-13T00:55:06;100704.66;;;-2.09;89.72
57234;BME280;43090;52.604;13.318;2022-12-13T00:57:32;100702.19;;;-2.19;88.23
57234;BME280;43090;52.604;13.318;2022-12-13T00:59:59;100705.53;;;-2.09;89.03
57234;BME280;43090;52.604;13.318;2022-12-13T01:02:25;100706.56;;;-2.18;89.90
57234;BME280;43090;52.604;13.318;2022-12-13T01:04:51;100698.44;;;-2.04;89.12
57234;BME280;43090;52.604;13.318;2022-12-13T01:07:18;100706.50;;;-2.14;87.72
57234;BME280;43090;52.604;13.318;2022-12-13T01:09:44;100705.00;;;-2.28;88.09
57234;BME280;43090;52.604;13.318;2022-12-13T01:12:10;100708.44;;;-2.24;88.13
57234;BME280;43090;52.604;13.318;2022-12-13T01:14:37;100697.94;;;-2.24;88.23
57234;BME280;43090;52.604;13.318;2022-12-13T01:19:52;100699.06;;;-2.38;87.89
57234;BME280;43090;52.604;13.318;2022-12-13T01:22:19;100698.81;;;-2.25;87.06
57234;BME280;43090;52.604;13.318;2022-12-13T01:24:45;100698.22;;;-2.40;87.37
57234;BME280;43090;52.604;13.318;2022-12-13T01:27:11;100700.47;;;-2.18;86.55
57234;BME280;43090;52.604;13.318;2022-12-13T01:29:38;100696.44;;;-2.38;87.89
57234;BME280;43090;52.604;13.318;2022-12-13T01:32:04;100698.19;;;-2.37;87.41
57234;BME280;43090;52.604;13.318;2022-12-13T01:34:30;100702.38;;;-2.28;86.72
57234;BME280;43090;52.604;13.318;2022-12-13T01:36:57;100695.25;;;-2.20;87.35
57234;BME280;43090;52.604;13.318;2022-12-13T01:39:24;100687.47;;;-2.26;87.27
57234;BME280;43090;52.604;13.318;2022-12-13T01:41:52;100696.28;;;-2.28;87.44
57234;BME280;43090;52.604;13.318;2022-12-13T01:47:09;100697.88;;;-2.21;87.14
57234;BME280;43090;52.604;13.318;2022-12-13T01:49:36;100687.00;;;-2.48;88.38
57234;BME280;43090;52.604;13.318;2022-12-13T01:52:04;100690.16;;;-2.29;87.41
57234;BME280;43090;52.604;13.318;2022-12-13T01:54:32;100690.13;;;-2.27;87.17
57234;BME280;43090;52.604;13.318;2022-12-13T01:56:59;100689.56;;;-2.45;88.03
57234;BME280;43090;52.604;13.318;2022-12-13T01:59:28;100681.34;;;-2.26;88.77
57234;BME280;43090;52.604;13.318;2022-12-13T02:01:54;100688.13;;;-2.14;87.24
57234;BME280;43090;52.604;13.318;2022-12-13T02:04:30;100682.28;;;-2.29;86.30
57234;BME280;43090;52.604;13.318;2022-12-13T02:06:59;100688.22;;;-2.19;87.38
57234;BME280;43090;52.604;13.318;2022-12-13T02:09:25;100691.59;;;-2.12;87.29
57234;BME280;43090;52.604;13.318;2022-12-13T02:11:52;100679.44;;;-2.16;86.10
57234;BME280;43090;52.604;13.318;2022-12-13T02:14:18;100677.75;;;-2.19;86.63
57234;BME280;43090;52.604;13.318;2022-12-13T02:16:50;100684.75;;;-2.20;87.33
57234;BME280;43090;52.604;13.318;2022-12-13T02:22:18;100684.13;;;-1.89;86.61
57234;BME280;43090;52.604;13.318;2022-12-13T02:30:36;100685.75;;;-2.27;87.63
57234;BME280;43090;52.604;13.318;2022-12-13T02:35:46;100683.84;;;-2.19;86.71
57234;BME280;43090;52.604;13.318;2022-12-13T02:38:26;100687.03;;;-2.03;86.47
57234;BME280;43090;52.604;13.318;2022-12-13T02:43:52;100683.06;;;-2.22;87.20
57234;BME280;43090;52.604;13.318;2022-12-13T02:46:27;100682.06;;;-2.16;86.89
57234;BME280;43090;52.604;13.318;2022-12-13T02:48:55;100678.56;;;-2.17;86.98
57234;BME280;43090;52.604;13.318;2022-12-13T02:51:22;100684.97;;;-2.32;86.64
57234;BME280;43090;52.604;13.318;2022-12-13T02:53:48;100680.81;;;-2.44;87.36
57234;BME280;43090;52.604;13.318;2022-12-13T02:56:15;100680.44;;;-2.24;87.07
57234;BME280;43090;52.604;13.318;2022-12-13T02:58:43;100679.75;;;-2.33;88.00
57234;BME280;43090;52.604;13.318;2022-12-13T03:06:42;100677.59;;;-2.11;87.24
57234;BME280;43090;52.604;13.318;2022-12-13T03:09:17;100675.47;;;-2.38;87.44
57234;BME280;43090;52.604;13.318;2022-12-13T03:17:26;100680.41;;;-2.21;88.54
57234;BME280;43090;52.604;13.318;2022-12-13T03:19:56;100671.28;;;-2.03;88.01
57234;BME280;43090;52.604;13.318;2022-12-13T03:22:22;100679.66;;;-2.27;88.26
57234;BME280;43090;52.604;13.318;2022-12-13T03:24:50;100682.88;;;-2.14;88.19
57234;BME280;43090;52.604;13.318;2022-12-13T03:27:16;100672.25;;;-2.07;87.58
57234;BME280;43090;52.604;13.318;2022-12-13T03:29:43;100677.81;;;-2.22;89.25
57234;BME280;43090;52.604;13.318;2022-12-13T03:32:09;100675.13;;;-2.19;89.18
57234;BME280;43090;52.604;13.318;2022-12-13T03:34:35;100675.13;;;-2.19;88.44
57234;BME280;43090;52.604;13.318;2022-12-13T03:37:10;100665.41;;;-2.14;88.85
57234;BME280;43090;52.604;13.318;2022-12-13T03:39:36;100658.13;;;-2.46;88.99
57234;BME280;43090;52.604;13.318;2022-12-13T03:42:02;100655.38;;;-2.39;89.90
57234;BME280;43090;52.604;13.318;2022-12-13T03:44:29;100657.56;;;-2.15;88.77
57234;BME280;43090;52.604;13.318;2022-12-13T03:46:56;100659.31;;;-2.16;88.80
57234;BME280;43090;52.604;13.318;2022-12-13T03:49:25;100652.22;;;-2.11;88.57
57234;BME280;43090;52.604;13.318;2022-12-13T03:52:00;100661.56;;;-1.97;88.54
57234;BME280;43090;52.604;13.318;2022-12-13T03:54:26;100653.09;;;-2.10;88.35
57234;BME280;43090;52.604;13.318;2022-12-13T03:56:53;100659.63;;;-1.89;87.61
57234;BME280;43090;52.604;13.318;2022-12-13T03:59:19;100660.97;;;-1.70;87.71
57234;BME280;43090;52.604;13.318;2022-12-13T04:01:45;100654.75;;;-2.06;88.07
57234;BME280;43090;52.604;13.318;2022-12-13T04:04:12;100649.00;;;-2.25;89.12
57234;BME280;43090;52.604;13.318;2022-12-13T04:06:38;100654.84;;;-2.11;89.30
57234;BME280;43090;52.604;13.318;2022-12-13T04:09:04;100651.63;;;-2.25;89.03
57234;BME280;43090;52.604;13.318;2022-12-13T04:11:31;100652.31;;;-2.15;89.51
57234;BME280;43090;52.604;13.318;2022-12-13T04:14:16;100653.06;;;-2.09;89.36
57234;BME280;43090;52.604;13.318;2022-12-13T04:16:48;100646.97;;;-2.11;88.53
57234;BME280;43090;52.604;13.318;2022-12-13T04:19:15;100646.34;;;-2.24;89.43
57234;BME280;43090;52.604;13.318;2022-12-13T04:21:48;100649.31;;;-1.98;89.12
57234;BME280;43090;52.604;13.318;2022-12-13T04:24:14;100637.06;;;-2.40;88.95
57234;BME280;43090;52.604;13.318;2022-12-13T04:26:41;100647.09;;;-2.19;89.94
57234;BME280;43090;52.604;13.318;2022-12-13T04:29:08;100651.59;;;-2.24;89.87
57234;BME280;43090;52.604;13.318;2022-12-13T04:31:34;100644.53;;;-2.20;89.35
57234;BME280;43090;52.604;13.318;2022-12-13T04:34:00;100638.91;;;-2.02;88.53
57234;BME280;43090;52.604;13.318;2022-12-13T04:36:27;100637.91;;;-1.94;88.75
57234;BME280;43090;52.604;13.318;2022-12-13T04:38:58;100641.53;;;-2.02;88.22
57234;BME280;43090;52.604;13.318;2022-12-13T04:41:25;100641.78;;;-2.14;88.30
57234;BME280;43090;52.604;13.318;2022-12-13T04:43:59;100637.50;;;-2.18;88.88
57234;BME280;43090;52.604;13.318;2022-12-13T04:46:26;100648.63;;;-2.07;88.45
57234;BME280;43090;52.604;13.318;2022-12-13T04:48:52;100652.97;;;-2.06;88.35
57234;BME280;43090;52.604;13.318;2022-12-13T04:51:18;100651.50;;;-2.19;88.24
57234;BME280;43090;52.604;13.318;2022-12-13T04:53:45;100644.44;;;-2.17;87.68
57234;BME280;43090;52.604;13.318;2022-12-13T04:56:11;100653.91;;;-2.08;88.31
57234;BME280;43090;52.604;13.318;2022-12-13T04:58:37;100659.84;;;-2.00;87.71
57234;BME280;43090;52.604;13.318;2022-12-13T05:01:10;100658.59;;;-2.24;88.33
57234;BME280;43090;52.604;13.318;2022-12-13T05:03:36;100661.03;;;-2.15;88.21
57234;BME280;43090;52.604;13.318;2022-12-13T05:06:12;100653.50;;;-1.88;87.73
57234;BME280;43090;52.604;13.318;2022-12-13T05:08:53;100661.84;;;-2.11;87.80
57234;BME280;43090;52.604;13.318;2022-12-13T05:11:19;100660.97;;;-2.10;87.46
57234;BME280;43090;52.604;13.318;2022-12-13T05:13:48;100652.50;;;-2.25;88.18
57234;BME280;43090;52.604;13.318;2022-12-13T05:16:14;100656.56;;;-2.10;87.86
57234;BME280;43090;52.604;13.318;2022-12-13T05:18:41;100657.28;;;-2.47;88.29
57234;BME280;43090;52.604;13.318;2022-12-13T05:21:09;100658.66;;;-2.27;89.04
57234;BME280;43090;52.604;13.318;2022-12-13T05:23:36;100649.69;;;-2.17;89.09
57234;BME280;43090;52.604;13.318;2022-12-13T05:26:03;100655.72;;;-2.12;89.22
57234;BME280;43090;52.604;13.318;2022-12-13T05:28:29;100651.22;;;-2.05;88.93
57234;BME280;43090;52.604;13.318;2022-12-13T05:30:57;100658.19;;;-2.04;88.81
57234;BME280;43090;52.604;13.318;2022-12-13T05:33:24;100649.22;;;-1.92;88.25
57234;BME280;43090;52.604;13.318;2022-12-13T05:35:51;100655.97;;;-2.24;88.52
57234;BME280;43090;52.604;13.318;2022-12-13T05:38:25;100653.59;;;-2.37;89.30
57234;BME280;43090;52.604;13.318;2022-12-13T05:40:51;100648.50;;;-2.01;88.69
57234;BME280;43090;52.604;13.318;2022-12-13T05:43:17;100652.00;;;-2.45;88.92
57234;BME280;43090;52.604;13.318;2022-12-13T05:45:47;100641.28;;;-2.33;89.72
57234;BME280;43090;52.604;13.318;2022-12-13T05:48:13;100641.63;;;-2.06;88.68
57234;BME280;43090;52.604;13.318;2022-12-13T05:50:49;100642.50;;;-2.06;89.09
57234;BME280;43090;52.604;13.318;2022-12-13T05:53:16;100644.53;;;-2.20;88.83
57234;BME280;43090;52.604;13.318;2022-12-13T05:55:59;100646.88;;;-2.08;88.26
57234;BME280;43090;52.604;13.318;2022-12-13T05:58:26;100651.00;;;-1.94;88.93
57234;BME280;43090;52.604;13.318;2022-12-13T06:01:08;100653.06;;;-2.09;88.63
57234;BME280;43090;52.604;13.318;2022-12-13T06:03:35;100649.69;;;-2.17;88.96
57234;BME280;43090;52.604;13.318;2022-12-13T06:06:02;100653.47;;;-2.30;89.44
57234;BME280;43090;52.604;13.318;2022-12-13T06:08:29;100652.56;;;-2.29;89.06
57234;BME280;43090;52.604;13.318;2022-12-13T06:10:57;100652.84;;;-2.45;89.89
57234;BME280;43090;52.604;13.318;2022-12-13T06:13:37;100653.16;;;-2.15;89.35
57234;BME280;43090;52.604;13.318;2022-12-13T06:16:08;100653.94;;;-2.10;88.49
57234;BME280;43090;52.604;13.318;2022-12-13T06:18:49;100659.44;;;-2.22;89.17
57234;BME280;43090;52.604;13.318;2022-12-13T06:21:19;100671.88;;;-2.33;88.40
57234;BME280;43090;52.604;13.318;2022-12-13T06:23:46;100668.69;;;-2.49;89.32
57234;BME280;43090;52.604;13.318;2022-12-13T06:26:12;100667.09;;;-2.58;90.12
57234;BME280;43090;52.604;13.318;2022-12-13T06:28:38;100680.56;;;-2.30;89.55
57234;BME280;43090;52.604;13.318;2022-12-13T06:31:05;100676.88;;;-2.20;88.96
57234;BME280;43090;52.604;13.318;2022-12-13T06:33:31;100686.94;;;-2.45;89.44
57234;BME280;43090;52.604;13.318;2022-12-13T06:36:02;100677.19;;;-2.38;89.23
57234;BME280;43090;52.604;13.318;2022-12-13T06:38:29;100678.75;;;-2.28;89.67
57234;BME280;43090;52.604;13.318;2022-12-13T06:41:10;100678.75;;;-2.28;89.08
57234;BME280;43090;52.604;13.318;2022-12-13T06:43:37;100681.38;;;-2.28;89.12
57234;BME280;43090;52.604;13.318;2022-12-13T06:46:06;100681.25;;;-2.20;88.80
57234;BME280;43090;52.604;13.318;2022-12-13T06:48:34;100678.59;;;-2.19;88.28
57234;BME280;43090;52.604;13.318;2022-12-13T06:51:01;100693.53;;;-2.22;89.17
57234;BME280;43090;52.604;13.318;2022-12-13T06:53:28;100696.81;;;-2.11;88.37
57234;BME280;43090;52.604;13.318;2022-12-13T06:55:54;100698.19;;;-2.37;88.44
57234;BME280;43090;52.604;13.318;2022-12-13T06:58:21;100696.41;;;-2.36;89.62
57234;BME280;43090;52.604;13.318;2022-12-13T07:00:47;100699.72;;;-2.25;88.32
57234;BME280;43090;52.604;13.318;2022-12-13T07:03:14;100698.22;;;-2.40;87.73
57234;BME280;43090;52.604;13.318;2022-12-13T07:05:41;100697.91;;;-2.71;88.18
57234;BME280;43090;52.604;13.318;2022-12-13T07:08:08;100699.13;;;-2.41;88.78
57234;BME280;43090;52.604;13.318;2022-12-13T07:10:36;100710.06;;;-2.67;88.79
57234;BME280;43090;52.604;13.318;2022-12-13T07:13:03;100711.47;;;-2.46;88.31
57234;BME280;43090;52.604;13.318;2022-12-13T07:15:31;100711.47;;;-2.46;87.97
57234;BME280;43090;52.604;13.318;2022-12-13T07:17:58;100715.84;;;-2.48;88.44
57234;BME280;43090;52.604;13.318;2022-12-13T07:20:24;100715.66;;;-2.37;88.75
57234;BME280;43090;52.604;13.318;2022-12-13T07:22:51;100717.00;;;-2.66;89.22
57234;BME280;43090;52.604;13.318;2022-12-13T07:25:24;100720.50;;;-2.64;89.73
57234;BME280;43090;52.604;13.318;2022-12-13T07:27:57;100720.34;;;-2.55;89.84
57234;BME280;43090;52.604;13.318;2022-12-13T07:30:31;100722.75;;;-2.44;89.11
57234;BME280;43090;52.604;13.318;2022-12-13T07:32:57;100722.72;;;-2.41;88.45
57234;BME280;43090;52.604;13.318;2022-12-13T07:35:24;100728.72;;;-2.36;88.21
57234;BME280;43090;52.604;13.318;2022-12-13T07:37:56;100723.38;;;-2.29;86.84
57234;BME280;43090;52.604;13.318;2022-12-13T07:40:23;100719.44;;;-2.54;88.09
57234;BME280;43090;52.604;13.318;2022-12-13T07:42:53;100722.91;;;-2.50;88.12
57234;BME280;43090;52.604;13.318;2022-12-13T07:45:20;100718.41;;;-2.43;88.42
57234;BME280;43090;52.604;13.318;2022-12-13T07:47:46;100718.00;;;-2.72;89.44
57234;BME280;43090;52.604;13.318;2022-12-13T07:50:13;100719.31;;;-2.47;88.64
57234;BME280;43090;52.604;13.318;2022-12-13T07:52:50;100725.38;;;-2.44;89.65
57234;BME280;43090;52.604;13.318;2022-12-13T07:55:16;100733.81;;;-2.26;88.84
57234;BME280;43090;52.604;13.318;2022-12-13T07:57:48;100735.38;;;-2.16;88.46
57234;BME280;43090;52.604;13.318;2022-12-13T08:00:15;100734.13;;;-2.43;88.74
57234;BME280;43090;52.604;13.318;2022-12-13T08:02:41;100731.53;;;-2.46;89.47
57234;BME280;43090;52.604;13.318;2022-12-13T08:05:07;100729.03;;;-2.51;89.59
57234;BME280;43090;52.604;13.318;2022-12-13T08:07:52;100733.03;;;-2.30;89.03
57234;BME280;43090;52.604;13.318;2022-12-13T08:10:19;100728.69;;;-2.32;89.25
57234;BME280;43090;52.604;13.318;2022-12-13T08:12:45;100744.31;;;-2.26;89.56
57234;BME280;43090;52.604;13.318;2022-12-13T08:15:12;100736.59;;;-2.36;88.95
57234;BME280;43090;52.604;13.318;2022-12-13T08:17:45;100737.47;;;-2.35;88.63
57234;BME280;43090;52.604;13.318;2022-12-13T08:20:14;100745.06;;;-2.18;88.41
57234;BME280;43090;52.604;13.318;2022-12-13T08:22:54;100748.69;;;-2.27;89.47
57234;BME280;43090;52.604;13.318;2022-12-13T08:25:27;100749.53;;;-2.26;89.64
57234;BME280;43090;52.604;13.318;2022-12-13T08:27:54;100752.50;;;-2.45;89.44
57234;BME280;43090;52.604;13.318;2022-12-13T08:30:27;100751.38;;;-2.85;91.24
57234;BME280;43090;52.604;13.318;2022-12-13T08:32:53;100756.19;;;-2.57;90.43
57234;BME280;43090;52.604;13.318;2022-12-13T08:35:21;100753.28;;;-2.40;89.74
57234;BME280;43090;52.604;13.318;2022-12-13T08:37:47;100760.25;;;-2.39;88.76
57234;BME280;43090;52.604;13.318;2022-12-13T08:40:14;100755.22;;;-2.49;88.89
57234;BME280;43090;52.604;13.318;2022-12-13T08:42:40;100753.69;;;-2.13;88.48
57234;BME280;43090;52.604;13.318;2022-12-13T08:45:07;100764.66;;;-2.39;88.33
57234;BME280;43090;52.604;13.318;2022-12-13T08:47:33;100765.59;;;-2.45;88.69
57234;BME280;43090;52.604;13.318;2022-12-13T08:50:06;100767.41;;;-2.47;88.65
57234;BME280;43090;52.604;13.318;2022-12-13T08:52:33;100771.56;;;-2.35;88.58
57234;BME280;43090;52.604;13.318;2022-12-13T08:55:06;100769.13;;;-2.46;88.82
57234;BME280;43090;52.604;13.318;2022-12-13T08:57:34;100771.59;;;-2.37;88.65
57234;BME280;43090;52.604;13.318;2022-12-13T09:00:01;100770.19;;;-2.06;88.54
57234;BME280;43090;52.604;13.318;2022-12-13T09:02:28;100766.06;;;-2.20;87.71
57234;BME280;43090;52.604;13.318;2022-12-13T09:04:54;100768.34;;;-2.01;86.78
57234;BME280;43090;52.604;13.318;2022-12-13T09:07:20;100766.03;;;-2.18;86.38
57234;BME280;43090;52.604;13.318;2022-12-13T09:09:47;100765.59;;;-2.45;86.81
57234;BME280;43090;52.604;13.318;2022-12-13T09:12:20;100774.41;;;-2.49;87.54
57234;BME280;43090;52.604;13.318;2022-12-13T09:14:55;100775.31;;;-2.48;88.12
57234;BME280;43090;52.604;13.318;2022-12-13T09:17:27;100778.38;;;-2.76;88.38
57234;BME280;43090;52.604;13.318;2022-12-13T09:20:02;100772.38;;;-2.30;89.18
57234;BME280;43090;52.604;13.318;2022-12-13T09:22:49;100772.53;;;-2.39;87.54
57234;BME280;43090;52.604;13.318;2022-12-13T09:25:16;100768.00;;;-2.31;87.79
57234;BME280;43090;52.604;13.318;2022-12-13T09:27:49;100773.34;;;-2.37;88.57
57234;BME280;43090;52.604;13.318;2022-12-13T09:30:16;100779.47;;;-2.37;88.96
57234;BME280;43090;52.604;13.318;2022-12-13T09:32:42;100782.75;;;-2.25;88.68
57234;BME280;43090;52.604;13.318;2022-12-13T09:35:14;100781.19;;;-2.34;88.18
57234;BME280;43090;52.604;13.318;2022-12-13T09:37:41;100779.41;;;-2.33;89.28
57234;BME280;43090;52.604;13.318;2022-12-13T09:40:19;100777.84;;;-2.45;89.17
57234;BME280;43090;52.604;13.318;2022-12-13T09:42:52;100775.56;;;-2.14;88.07
57234;BME280;43090;52.604;13.318;2022-12-13T09:45:39;100770.00;;;-1.95;87.82
57234;BME280;43090;52.604;13.318;2022-12-13T09:48:09;100771.84;;;-2.01;86.97
57234;BME280;43090;52.604;13.318;2022-12-13T09:50:47;100776.75;;;-2.32;87.74
57234;BME280;43090;52.604;13.318;2022-12-13T09:53:24;100768.22;;;-2.43;87.94
57234;BME280;43090;52.604;13.318;2022-12-13T09:55:59;100755.72;;;-2.29;88.17
57234;BME280;43090;52.604;13.318;2022-12-13T09:58:36;100759.53;;;-1.98;87.73
57234;BME280;43090;52.604;13.318;2022-12-13T10:01:03;100760.72;;;-2.15;87.29
57234;BME280;43090;52.604;13.318;2022-12-13T10:03:30;100762.72;;;-2.29;88.03
57234;BME280;43090;52.604;13.318;2022-12-13T10:05:58;100767.00;;;-2.22;87.72
57234;BME280;43090;52.604;13.318;2022-12-13T10:08:31;100764.03;;;-2.04;87.07
57234;BME280;43090;52.604;13.318;2022-12-13T10:10:58;100758.16;;;-2.18;87.86
57234;BME280;43090;52.604;13.318;2022-12-13T10:13:41;100756.44;;;-2.19;87.30
57234;BME280;43090;52.604;13.318;2022-12-13T10:16:18;100769.44;;;-2.13;87.27
57234;BME280;43090;52.604;13.318;2022-12-13T10:18:50;100762.13;;;-1.95;87.74
57234;BME280;43090;52.604;13.318;2022-12-13T10:21:18;100766.75;;;-2.10;87.31
57234;BME280;43090;52.604;13.318;2022-12-13T10:23:47;100762.16;;;-1.98;88.08
57234;BME280;43090;52.604;13.318;2022-12-13T10:26:36;100756.13;;;-2.02;86.60
57234;BME280;43090;52.604;13.318;2022-12-13T10:29:05;100751.34;;;-1.80;87.29
57234;BME280;43090;52.604;13.318;2022-12-13T10:31:38;100746.28;;;-1.91;85.94
57234;BME280;43090;52.604;13.318;2022-12-13T10:34:17;100754.34;;;-2.02;86.95
57234;BME280;43090;52.604;13.318;2022-12-13T10:36:49;100753.63;;;-2.10;87.51
57234;BME280;43090;52.604;13.318;2022-12-13T10:39:17;100744.06;;;-1.67;86.10
57234;BME280;43090;52.604;13.318;2022-12-13T10:41:44;100750.03;;;-2.04;86.16
57234;BME280;43090;52.604;13.318;2022-12-13T10:44:17;100745.34;;;-1.88;87.26
57234;BME280;43090;52.604;13.318;2022-12-13T10:46:51;100753.44;;;-1.99;88.28
57234;BME280;43090;52.604;13.318;2022-12-13T10:49:20;100753.97;;;-1.80;87.54
57234;BME280;43090;52.604;13.318;2022-12-13T10:51:50;100750.38;;;-1.76;86.84
57234;BME280;43090;52.604;13.318;2022-12-13T10:54:26;100744.13;;;-2.17;87.84
57234;BME280;43090;52.604;13.318;2022-12-13T10:57:03;100742.09;;;-1.99;88.42
57234;BME280;43090;52.604;13.318;2022-12-13T11:01:57;100739.31;;;-1.93;88.55
57234;BME280;43090;52.604;13.318;2022-12-13T11:04:32;100744.25;;;-2.23;88.39
57234;BME280;43090;52.604;13.318;2022-12-13T11:06:59;100745.66;;;-2.04;88.67
57234;BME280;43090;52.604;13.318;2022-12-13T11:09:28;100742.56;;;-1.80;86.63
57234;BME280;43090;52.604;13.318;2022-12-13T11:12:09;100739.31;;;-1.93;87.23
57234;BME280;43090;52.604;13.318;2022-12-13T11:14:38;100740.06;;;-1.87;87.41
57234;BME280;43090;52.604;13.318;2022-12-13T11:17:12;100742.13;;;-1.57;85.98
57234;BME280;43090;52.604;13.318;2022-12-13T11:19:39;100744.56;;;-1.92;86.16
57234;BME280;43090;52.604;13.318;2022-12-13T11:22:17;100745.31;;;-1.85;86.08
57234;BME280;43090;52.604;13.318;2022-12-13T11:24:47;100738.09;;;-1.75;85.17
57234;BME280;43090;52.604;13.318;2022-12-13T11:27:41;100732.13;;;-1.82;84.26
57234;BME280;43090;52.604;13.318;2022-12-13T11:32:44;100731.63;;;-2.01;85.38
57234;BME280;43090;52.604;13.318;2022-12-13T11:35:15;100722.78;;;-1.98;84.90
57234;BME280;43090;52.604;13.318;2022-12-13T11:40:16;100726.19;;;-1.92;84.98
57234;BME280;43090;52.604;13.318;2022-12-13T11:42:50;100726.50;;;-2.09;85.82
57234;BME280;43090;52.604;13.318;2022-12-13T11:45:26;100728.53;;;-1.78;84.07
57234;BME280;43090;52.604;13.318;2022-12-13T11:50:33;100729.72;;;-1.51;83.25
57234;BME280;43090;52.604;13.318;2022-12-13T11:55:49;100728.31;;;-1.67;83.80
57234;BME280;43090;52.604;13.318;2022-12-13T12:01:38;100729.75;;;-1.52;82.98
57234;BME280;43090;52.604;13.318;2022-12-13T12:04:06;100730.06;;;-1.68;81.21
57234;BME280;43090;52.604;13.318;2022-12-13T12:06:41;100730.56;;;-1.50;81.14
57234;BME280;43090;52.604;13.318;2022-12-13T12:09:13;100733.31;;;-1.56;80.31
57234;BME280;43090;52.604;13.318;2022-12-13T12:16:53;100733.09;;;-1.44;81.12
57234;BME280;43090;52.604;13.318;2022-12-13T12:19:21;100725.84;;;-1.75;80.74
57234;BME280;43090;52.604;13.318;2022-12-13T12:21:52;100731.44;;;-1.93;83.42
57234;BME280;43090;52.604;13.318;2022-12-13T12:37:38;100733.78;;;-1.36;81.74
57234;BME280;43090;52.604;13.318;2022-12-13T12:51:09;100725.56;;;-1.20;81.70
57234;BME280;43090;52.604;13.318;2022-12-13T12:56:22;100725.66;;;-1.25;80.88
57234;BME280;43090;52.604;13.318;2022-12-13T12:59:05;100725.47;;;-1.17;81.10
57234;BME280;43090;52.604;13.318;2022-12-13T13:01:51;100726.41;;;-1.20;80.56
57234;BME280;43090;52.604;13.318;2022-12-13T13:04:21;100725.22;;;-1.44;80.89
57234;BME280;43090;52.604;13.318;2022-12-13T13:06:53;100723.75;;;-1.57;81.33
57234;BME280;43090;52.604;13.318;2022-12-13T13:09:27;100729.59;;;-1.88;82.29
57234;BME280;43090;52.604;13.318;2022-12-13T13:11:55;100724.91;;;-1.71;81.20
57234;BME280;43090;52.604;13.318;2022-12-13T13:16:49;100728.91;;;-1.96;83.75
57234;BME280;43090;52.604;13.318;2022-12-13T13:21:54;100726.50;;;-1.63;82.68
57234;BME280;43090;52.604;13.318;2022-12-13T13:24:31;100727.94;;;-1.92;82.82
57234;BME280;43090;52.604;13.318;2022-12-13T13:26:59;100721.75;;;-1.90;83.59
57234;BME280;43090;52.604;13.318;2022-12-13T13:29:44;100722.38;;;-1.77;83.48
57234;BME280;43090;52.604;13.318;2022-12-13T13:34:54;100726.41;;;-1.60;83.63
57234;BME280;43090;52.604;13.318;2022-12-13T13:37:27;100725.72;;;-1.69;82.28
57234;BME280;43090;52.604;13.318;2022-12-13T13:39:55;100719.31;;;-1.55;82.31
57234;BME280;43090;52.604;13.318;2022-12-13T13:42:23;100729.91;;;-1.60;81.70
57234;BME280;43090;52.604;13.318;2022-12-13T13:47:30;100731.16;;;-1.78;82.58
57234;BME280;43090;52.604;13.318;2022-12-13T13:52:54;100731.22;;;-1.81;81.36
57234;BME280;43090;52.604;13.318;2022-12-13T13:58:13;100723.22;;;-1.75;82.46
57234;BME280;43090;52.604;13.318;2022-12-13T14:01:03;100731.63;;;-1.57;81.71
57234;BME280;43090;52.604;13.318;2022-12-13T14:06:35;100715.72;;;-1.49;81.89
57234;BME280;43090;52.604;13.318;2022-12-13T14:09:56;100718.13;;;-1.42;82.10
57234;BME280;43090;52.604;13.318;2022-12-13T14:15:11;100724.84;;;-1.27;81.50
57234;BME280;43090;52.604;13.318;2022-12-13T14:28:25;100717.03;;;-1.31;80.57
57234;BME280;43090;52.604;13.318;2022-12-13T14:30:54;100715.94;;;-1.21;81.20
57234;BME280;43090;52.604;13.318;2022-12-13T14:33:23;100721.28;;;-1.24;81.99
57234;BME280;43090;52.604;13.318;2022-12-13T14:35:55;100724.16;;;-1.37;81.12
57234;BME280;43090;52.604;13.318;2022-12-13T14:38:22;100721.81;;;-1.49;82.04
57234;BME280;43090;52.604;13.318;2022-12-13T14:40:51;100724.16;;;-1.37;80.42
57234;BME280;43090;52.604;13.318;2022-12-13T14:43:22;100721.59;;;-1.40;81.62
57234;BME280;43090;52.604;13.318;2022-12-13T14:45:54;100721.81;;;-1.49;82.12